PWSweather.com
Personal Weather Stations
Station Observations
THAIWX
Pa Daet, Chiang MaiTH 50100

Pa DaetChiang MaiTH 50100

Lat: 18.766158, Lon: 98.97553

Elevation: 1007

Station Type: LaCrosse WS2315

http://www.ThaiWx.yolasite.com/

Latest ConditionsUpdated 2:22:35 PM GMT+07:07 Tuesday, Oct 17, 2017
Currently Today's Max Today's Min Today's Average
Temperature 78.6°F25.9°C 78.6°F25.9°C 73.9°F23.3°C 75.3°F24.1°C
Dew Point 76.5°F24.7°C 76.9°F24.9°C 73.3°F22.9°C 74.6°F23.7°C
Winds Calm Calm 0.9 mph SW1.4 kmh SW - 0.0 mph 0.0 kmh
Wind Gusts -- 1.3 mph2.1 kmh - -
Humidity 93% 99% 93% 98%
Pressure 29.80 in1009.1 mb 29.91 in1012.9 mb 29.80 in1009.1 mb -
Precipitation - 0.15 in3.8 mm - -
Hour Temp Dew Point Humidity Winds Wind Gusts Pressure Precip Precip Rate Daily Precip Total
02:22 PM 78.6°F25.9°C 76.5°F24.7°C 93% Calm Calm -- 29.80 in1009.1 mb 0.00 in0.0 mm 0.00 in0.0 mm 0.15 in3.8 mm
02:18 PM 78.4°F25.8°C 76.6°F24.8°C 94% Calm Calm -- 29.80 in1009.1 mb 0.00 in0.0 mm 0.00 in0.0 mm 0.15 in3.8 mm
02:11 PM 78.1°F25.6°C 76.6°F24.8°C 95% Calm Calm -- 29.80 in1009.1 mb 0.00 in0.0 mm 0.00 in0.0 mm 0.15 in3.8 mm
02:07 PM 78.1°F25.6°C 76.9°F24.9°C 96% Calm Calm -- 29.80 in1009.1 mb 0.00 in0.0 mm 0.00 in0.0 mm 0.15 in3.8 mm
02:01 PM 77.7°F25.4°C 76.8°F24.9°C 97% Calm Calm -- 29.81 in1009.5 mb 0.00 in0.0 mm 0.00 in0.0 mm 0.15 in3.8 mm
01:56 PM 77.5°F25.3°C 76.6°F24.8°C 97% Calm Calm -- 29.81 in1009.5 mb 0.00 in0.0 mm 0.00 in0.0 mm 0.15 in3.8 mm
01:52 PM 77.2°F25.1°C 76.3°F24.6°C 97% Calm Calm 0.9 mph1.4 kmh 29.81 in1009.5 mb 0.00 in0.0 mm 0.00 in0.0 mm 0.15 in3.8 mm
01:46 PM 77.2°F25.1°C 76.3°F24.6°C 97% Calm Calm 0.9 mph1.4 kmh 29.82 in1009.8 mb 0.00 in0.0 mm 0.00 in0.0 mm 0.15 in3.8 mm
01:39 PM 76.8°F24.9°C 75.9°F24.4°C 97% Calm Calm -- 29.82 in1009.8 mb 0.00 in0.0 mm 0.00 in0.0 mm 0.15 in3.8 mm
01:35 PM 76.8°F24.9°C 75.9°F24.4°C 97% Calm Calm -- 29.82 in1009.8 mb 0.00 in0.0 mm 0.00 in0.0 mm 0.15 in3.8 mm
01:31 PM 76.8°F24.9°C 75.9°F24.4°C 97% Calm Calm -- 29.82 in1009.8 mb 0.00 in0.0 mm 0.00 in0.0 mm 0.15 in3.8 mm
01:24 PM 76.6°F24.8°C 75.7°F24.3°C 97% Calm Calm -- 29.83 in1010.2 mb 0.00 in0.0 mm 0.00 in0.0 mm 0.15 in3.8 mm
01:20 PM 76.6°F24.8°C 76.0°F24.4°C 98% Calm Calm -- 29.83 in1010.2 mb 0.00 in0.0 mm 0.00 in0.0 mm 0.15 in3.8 mm
01:16 PM 76.6°F24.8°C 75.7°F24.3°C 97% Calm Calm -- 29.83 in1010.2 mb 0.00 in0.0 mm 0.00 in0.0 mm 0.15 in3.8 mm
01:09 PM 76.3°F24.6°C 75.4°F24.1°C 97% Calm Calm -- 29.84 in1010.5 mb 0.00 in0.0 mm 0.00 in0.0 mm 0.15 in3.8 mm
01:05 PM 76.3°F24.6°C 75.4°F24.1°C 97% Calm Calm -- 29.84 in1010.5 mb 0.02 in0.5 mm 0.00 in0.0 mm 0.15 in3.8 mm
12:59 PM 76.3°F24.6°C 75.4°F24.1°C 97% Calm Calm -- 29.85 in1010.8 mb 0.02 in0.5 mm 0.00 in0.0 mm 0.15 in3.8 mm
12:54 PM 76.3°F24.6°C 75.4°F24.1°C 97% Calm Calm -- 29.85 in1010.8 mb 0.04 in1.0 mm 0.00 in0.0 mm 0.15 in3.8 mm
12:50 PM 76.1°F24.5°C 75.2°F24.0°C 97% Calm Calm -- 29.85 in1010.8 mb 0.04 in1.0 mm 0.00 in0.0 mm 0.15 in3.8 mm
12:44 PM 75.9°F24.4°C 75.0°F23.9°C 97% Calm Calm -- 29.86 in1011.2 mb 0.04 in1.0 mm 0.00 in0.0 mm 0.15 in3.8 mm
12:39 PM 75.9°F24.4°C 75.0°F23.9°C 97% Calm Calm -- 29.86 in1011.2 mb 0.04 in1.0 mm 0.00 in0.0 mm 0.15 in3.8 mm
12:33 PM 75.9°F24.4°C 75.3°F24.1°C 98% Calm Calm -- 29.86 in1011.2 mb 0.04 in1.0 mm 0.00 in0.0 mm 0.15 in3.8 mm
12:29 PM 75.9°F24.4°C 75.3°F24.1°C 98% Calm Calm -- 29.86 in1011.2 mb 0.06 in1.5 mm 0.00 in0.0 mm 0.15 in3.8 mm
12:22 PM 75.9°F24.4°C 75.3°F24.1°C 98% Calm Calm -- 29.86 in1011.2 mb 0.06 in1.5 mm 0.00 in0.0 mm 0.15 in3.8 mm
12:18 PM 75.9°F24.4°C 75.3°F24.1°C 98% Calm Calm -- 29.86 in1011.2 mb 0.06 in1.5 mm 0.00 in0.0 mm 0.15 in3.8 mm
12:11 PM 75.9°F24.4°C 75.0°F23.9°C 97% Calm Calm -- 29.87 in1011.5 mb 0.08 in2.0 mm 0.00 in0.0 mm 0.15 in3.8 mm
12:07 PM 75.9°F24.4°C 75.0°F23.9°C 97% Calm Calm -- 29.87 in1011.5 mb 0.10 in2.5 mm 0.02 in0.5 mm 0.13 in3.3 mm
11:59 AM 76.1°F24.5°C 75.2°F24.0°C 97% Calm Calm -- 29.88 in1011.9 mb 0.08 in2.0 mm 0.24 in6.1 mm 0.11 in2.8 mm
11:54 AM 76.3°F24.6°C 75.4°F24.1°C 97% Calm Calm -- 29.88 in1011.9 mb 0.06 in1.5 mm 0.00 in0.0 mm 0.11 in2.8 mm
11:50 AM 76.5°F24.7°C 75.5°F24.2°C 97% Calm Calm -- 29.88 in1011.9 mb 0.06 in1.5 mm 0.00 in0.0 mm 0.11 in2.8 mm
11:44 AM 76.6°F24.8°C 75.7°F24.3°C 97% Calm Calm -- 29.88 in1011.9 mb 0.06 in1.5 mm 0.00 in0.0 mm 0.11 in2.8 mm
11:39 AM 76.5°F24.7°C 75.5°F24.2°C 97% Calm Calm -- 29.88 in1011.9 mb 0.06 in1.5 mm 0.00 in0.0 mm 0.11 in2.8 mm
11:35 AM 76.6°F24.8°C 75.7°F24.3°C 97% Calm Calm -- 29.88 in1011.9 mb 0.06 in1.5 mm 0.20 in5.1 mm 0.09 in2.3 mm
11:29 AM 76.5°F24.7°C 75.5°F24.2°C 97% Calm Calm -- 29.88 in1011.9 mb 0.04 in1.0 mm 0.00 in0.0 mm 0.09 in2.3 mm
11:24 AM 76.5°F24.7°C 75.2°F24.0°C 96% Calm Calm 0.7 mph1.1 kmh 29.89 in1012.2 mb 0.04 in1.0 mm 0.00 in0.0 mm 0.09 in2.3 mm
11:18 AM 76.5°F24.7°C 75.2°F24.0°C 96% Calm Calm 0.7 mph1.1 kmh 29.88 in1011.9 mb 0.04 in1.0 mm 0.30 in7.6 mm 0.09 in2.3 mm
11:14 AM 76.8°F24.9°C 75.6°F24.2°C 96% Calm Calm -- 29.88 in1011.9 mb 0.02 in0.5 mm 0.24 in6.1 mm 0.04 in1.0 mm
11:09 AM 76.8°F24.9°C 75.6°F24.2°C 96% Calm Calm 0.4 mph0.6 kmh 29.89 in1012.2 mb 0.00 in0.0 mm 0.00 in0.0 mm 0.04 in1.0 mm
11:03 AM 77.2°F25.1°C 76.0°F24.4°C 96% Calm Calm 0.4 mph0.6 kmh 29.89 in1012.2 mb 0.00 in0.0 mm 0.00 in0.0 mm 0.04 in1.0 mm
10:59 AM 77.2°F25.1°C 76.0°F24.4°C 96% Calm Calm -- 29.89 in1012.2 mb 0.00 in0.0 mm 0.00 in0.0 mm 0.04 in1.0 mm
10:54 AM 77.2°F25.1°C 76.0°F24.4°C 96% Calm Calm 0.7 mph1.1 kmh 29.89 in1012.2 mb 0.00 in0.0 mm 0.00 in0.0 mm 0.04 in1.0 mm
10:48 AM 77.4°F25.2°C 76.1°F24.5°C 96% Calm Calm 0.7 mph1.1 kmh 29.90 in1012.5 mb 0.00 in0.0 mm 0.00 in0.0 mm 0.04 in1.0 mm
10:44 AM 77.5°F25.3°C 76.3°F24.6°C 96% Calm Calm -- 29.90 in1012.5 mb 0.00 in0.0 mm 0.00 in0.0 mm 0.04 in1.0 mm
10:37 AM 77.5°F25.3°C 76.3°F24.6°C 96% Calm Calm -- 29.90 in1012.5 mb 0.00 in0.0 mm 0.00 in0.0 mm 0.04 in1.0 mm
10:33 AM 77.5°F25.3°C 76.3°F24.6°C 96% Calm Calm -- 29.90 in1012.5 mb 0.00 in0.0 mm 0.00 in0.0 mm 0.04 in1.0 mm
10:29 AM 77.5°F25.3°C 76.3°F24.6°C 96% Calm Calm -- 29.90 in1012.5 mb 0.00 in0.0 mm 0.00 in0.0 mm 0.04 in1.0 mm
10:22 AM 77.5°F25.3°C 76.3°F24.6°C 96% Calm Calm -- 29.90 in1012.5 mb 0.00 in0.0 mm 0.00 in0.0 mm 0.04 in1.0 mm
10:18 AM 77.5°F25.3°C 76.3°F24.6°C 96% Calm Calm -- 29.90 in1012.5 mb 0.00 in0.0 mm 0.00 in0.0 mm 0.04 in1.0 mm
10:14 AM 77.5°F25.3°C 76.3°F24.6°C 96% Calm Calm 1.1 mph1.8 kmh 29.91 in1012.9 mb 0.00 in0.0 mm 0.00 in0.0 mm 0.04 in1.0 mm
10:07 AM 77.5°F25.3°C 76.3°F24.6°C 96% Calm Calm 1.1 mph1.8 kmh 29.91 in1012.9 mb 0.00 in0.0 mm 0.00 in0.0 mm 0.04 in1.0 mm
10:03 AM 77.7°F25.4°C 76.8°F24.9°C 97% 0.7 mph SE1.1 kmh SE 0.7 mph1.1 kmh 29.91 in1012.9 mb 0.00 in0.0 mm 0.00 in0.0 mm 0.04 in1.0 mm
09:57 AM 77.7°F25.4°C 76.8°F24.9°C 97% Calm Calm -- 29.91 in1012.9 mb 0.00 in0.0 mm 0.00 in0.0 mm 0.04 in1.0 mm
09:52 AM 77.5°F25.3°C 76.6°F24.8°C 97% Calm Calm -- 29.91 in1012.9 mb 0.00 in0.0 mm 0.00 in0.0 mm 0.04 in1.0 mm
09:46 AM 77.5°F25.3°C 76.6°F24.8°C 97% Calm Calm 0.4 mph0.6 kmh 29.91 in1012.9 mb 0.00 in0.0 mm 0.00 in0.0 mm 0.04 in1.0 mm
09:42 AM 77.4°F25.2°C 76.7°F24.8°C 98% 0.4 mph SSE0.6 kmh SSE 0.4 mph0.6 kmh 29.91 in1012.9 mb 0.00 in0.0 mm 0.00 in0.0 mm 0.04 in1.0 mm
09:37 AM 77.2°F25.1°C 76.6°F24.8°C 98% Calm Calm -- 29.91 in1012.9 mb 0.00 in0.0 mm 0.00 in0.0 mm 0.04 in1.0 mm
09:31 AM 77.0°F25.0°C 76.4°F24.7°C 98% Calm Calm -- 29.91 in1012.9 mb 0.00 in0.0 mm 0.00 in0.0 mm 0.04 in1.0 mm
09:24 AM 76.8°F24.9°C 76.2°F24.6°C 98% Calm Calm -- 29.91 in1012.9 mb 0.00 in0.0 mm 0.00 in0.0 mm 0.04 in1.0 mm
09:20 AM 76.8°F24.9°C 76.2°F24.6°C 98% Calm Calm -- 29.91 in1012.9 mb 0.00 in0.0 mm 0.00 in0.0 mm 0.04 in1.0 mm
09:14 AM 76.5°F24.7°C 75.8°F24.3°C 98% Calm Calm -- 29.90 in1012.5 mb 0.00 in0.0 mm 0.00 in0.0 mm 0.04 in1.0 mm
09:09 AM 76.3°F24.6°C 75.7°F24.3°C 98% Calm Calm 0.4 mph0.6 kmh 29.90 in1012.5 mb 0.00 in0.0 mm 0.00 in0.0 mm 0.04 in1.0 mm
09:05 AM 76.1°F24.5°C 75.5°F24.2°C 98% Calm Calm 0.4 mph0.6 kmh 29.90 in1012.5 mb 0.00 in0.0 mm 0.00 in0.0 mm 0.04 in1.0 mm
08:59 AM 76.1°F24.5°C 75.5°F24.2°C 98% Calm Calm -- 29.90 in1012.5 mb 0.00 in0.0 mm 0.00 in0.0 mm 0.04 in1.0 mm
08:54 AM 76.1°F24.5°C 75.5°F24.2°C 98% Calm Calm -- 29.90 in1012.5 mb 0.00 in0.0 mm 0.00 in0.0 mm 0.04 in1.0 mm
08:48 AM 75.9°F24.4°C 75.3°F24.1°C 98% Calm Calm -- 29.89 in1012.2 mb 0.00 in0.0 mm 0.00 in0.0 mm 0.04 in1.0 mm
08:44 AM 75.9°F24.4°C 75.3°F24.1°C 98% Calm Calm 0.7 mph1.1 kmh 29.90 in1012.5 mb 0.00 in0.0 mm 0.00 in0.0 mm 0.04 in1.0 mm
08:37 AM 75.9°F24.4°C 75.3°F24.1°C 98% Calm Calm 0.7 mph1.1 kmh 29.89 in1012.2 mb 0.00 in0.0 mm 0.00 in0.0 mm 0.04 in1.0 mm
08:33 AM 75.9°F24.4°C 75.3°F24.1°C 98% Calm Calm -- 29.89 in1012.2 mb 0.00 in0.0 mm 0.00 in0.0 mm 0.04 in1.0 mm
08:29 AM 75.9°F24.4°C 75.3°F24.1°C 98% Calm Calm -- 29.89 in1012.2 mb 0.00 in0.0 mm 0.00 in0.0 mm 0.04 in1.0 mm
08:22 AM 75.7°F24.3°C 75.4°F24.1°C 99% Calm Calm -- 29.88 in1011.9 mb 0.00 in0.0 mm 0.00 in0.0 mm 0.04 in1.0 mm
08:18 AM 75.6°F24.2°C 75.3°F24.1°C 99% Calm Calm 0.4 mph0.6 kmh 29.88 in1011.9 mb 0.00 in0.0 mm 0.00 in0.0 mm 0.04 in1.0 mm
08:12 AM 75.4°F24.1°C 75.1°F23.9°C 99% 0.4 mph SE0.6 kmh SE 0.4 mph0.6 kmh 29.88 in1011.9 mb 0.00 in0.0 mm 0.00 in0.0 mm 0.04 in1.0 mm
08:07 AM 75.4°F24.1°C 74.7°F23.7°C 99% Calm Calm -- 29.88 in1011.9 mb 0.00 in0.0 mm 0.00 in0.0 mm 0.04 in1.0 mm
08:03 AM 75.0°F23.9°C 74.7°F23.7°C 99% Calm Calm -- 29.88 in1011.9 mb 0.00 in0.0 mm 0.00 in0.0 mm 0.04 in1.0 mm
07:57 AM 75.0°F23.9°C 74.7°F23.7°C 99% Calm Calm -- 29.88 in1011.9 mb 0.00 in0.0 mm 0.00 in0.0 mm 0.04 in1.0 mm
07:52 AM 74.8°F23.8°C 74.5°F23.6°C 99% Calm Calm -- 29.87 in1011.5 mb 0.00 in0.0 mm 0.00 in0.0 mm 0.04 in1.0 mm
07:46 AM 74.8°F23.8°C 74.5°F23.6°C 99% Calm Calm -- 29.87 in1011.5 mb 0.00 in0.0 mm 0.00 in0.0 mm 0.04 in1.0 mm
07:42 AM 74.8°F23.8°C 74.4°F23.6°C 99% Calm Calm -- 29.87 in1011.5 mb 0.00 in0.0 mm 0.00 in0.0 mm 0.04 in1.0 mm
07:37 AM 74.8°F23.8°C 74.5°F23.6°C 99% Calm Calm -- 29.87 in1011.5 mb 0.00 in0.0 mm 0.00 in0.0 mm 0.04 in1.0 mm
07:31 AM 74.5°F23.6°C 74.2°F23.4°C 99% Calm Calm -- 29.86 in1011.2 mb 0.00 in0.0 mm 0.00 in0.0 mm 0.04 in1.0 mm
07:27 AM 74.5°F23.6°C 74.2°F23.4°C 99% Calm Calm -- 29.86 in1011.2 mb 0.00 in0.0 mm 0.00 in0.0 mm 0.04 in1.0 mm
07:22 AM 74.5°F23.6°C 74.2°F23.4°C 99% Calm Calm -- 29.86 in1011.2 mb 0.00 in0.0 mm 0.00 in0.0 mm 0.04 in1.0 mm
07:16 AM 74.5°F23.6°C 74.2°F23.4°C 99% Calm Calm -- 29.86 in1011.2 mb 0.00 in0.0 mm 0.00 in0.0 mm 0.04 in1.0 mm
07:12 AM 74.5°F23.6°C 74.2°F23.4°C 99% Calm Calm 0.4 mph0.6 kmh 29.85 in1010.8 mb 0.00 in0.0 mm 0.00 in0.0 mm 0.04 in1.0 mm
07:05 AM 74.5°F23.6°C 74.2°F23.4°C 99% 0.4 mph SE0.6 kmh SE 0.4 mph0.6 kmh 29.85 in1010.8 mb 0.00 in0.0 mm 0.00 in0.0 mm 0.04 in1.0 mm
07:01 AM 74.5°F23.6°C 74.2°F23.4°C 99% Calm Calm -- 29.85 in1010.8 mb 0.00 in0.0 mm 0.00 in0.0 mm 0.04 in1.0 mm
06:57 AM 74.3°F23.5°C 74.0°F23.3°C 99% Calm Calm -- 29.84 in1010.5 mb 0.00 in0.0 mm 0.00 in0.0 mm 0.04 in1.0 mm
06:50 AM 74.5°F23.6°C 74.2°F23.4°C 99% Calm Calm -- 29.84 in1010.5 mb 0.00 in0.0 mm 0.00 in0.0 mm 0.04 in1.0 mm
06:46 AM 74.3°F23.5°C 74.0°F23.3°C 99% Calm Calm -- 29.84 in1010.5 mb 0.00 in0.0 mm 0.00 in0.0 mm 0.04 in1.0 mm
06:39 AM 74.3°F23.5°C 74.0°F23.3°C 99% Calm Calm -- 29.84 in1010.5 mb 0.00 in0.0 mm 0.00 in0.0 mm 0.04 in1.0 mm
06:35 AM 74.3°F23.5°C 74.0°F23.3°C 99% Calm Calm -- 29.84 in1010.5 mb 0.00 in0.0 mm 0.00 in0.0 mm 0.04 in1.0 mm
06:29 AM 74.3°F23.5°C 74.0°F23.3°C 99% Calm Calm -- 29.83 in1010.2 mb 0.00 in0.0 mm 0.00 in0.0 mm 0.04 in1.0 mm
06:22 AM 74.3°F23.5°C 74.0°F23.3°C 99% Calm Calm -- 29.83 in1010.2 mb 0.00 in0.0 mm 0.00 in0.0 mm 0.04 in1.0 mm
06:18 AM 74.1°F23.4°C 73.8°F23.2°C 99% Calm Calm -- 29.83 in1010.2 mb 0.00 in0.0 mm 0.00 in0.0 mm 0.04 in1.0 mm
06:14 AM 74.1°F23.4°C 73.8°F23.2°C 99% Calm Calm -- 29.83 in1010.2 mb 0.00 in0.0 mm 0.00 in0.0 mm 0.04 in1.0 mm
06:07 AM 74.1°F23.4°C 73.8°F23.2°C 99% Calm Calm -- 29.82 in1009.8 mb 0.00 in0.0 mm 0.00 in0.0 mm 0.04 in1.0 mm
06:03 AM 74.1°F23.4°C 73.8°F23.2°C 99% Calm Calm -- 29.82 in1009.8 mb 0.00 in0.0 mm 0.00 in0.0 mm 0.04 in1.0 mm
05:59 AM 74.1°F23.4°C 73.8°F23.2°C 99% Calm Calm -- 29.82 in1009.8 mb 0.00 in0.0 mm 0.00 in0.0 mm 0.04 in1.0 mm
05:52 AM 74.1°F23.4°C 73.8°F23.2°C 99% Calm Calm -- 29.82 in1009.8 mb 0.00 in0.0 mm 0.00 in0.0 mm 0.04 in1.0 mm
05:48 AM 74.1°F23.4°C 73.8°F23.2°C 99% Calm Calm -- 29.82 in1009.8 mb 0.00 in0.0 mm 0.00 in0.0 mm 0.04 in1.0 mm
05:44 AM 74.1°F23.4°C 73.8°F23.2°C 99% Calm Calm -- 29.82 in1009.8 mb 0.00 in0.0 mm 0.00 in0.0 mm 0.04 in1.0 mm
05:37 AM 74.1°F23.4°C 73.8°F23.2°C 99% Calm Calm -- 29.82 in1009.8 mb 0.00 in0.0 mm 0.00 in0.0 mm 0.04 in1.0 mm
05:33 AM 74.1°F23.4°C 73.8°F23.2°C 99% Calm Calm -- 29.81 in1009.5 mb 0.00 in0.0 mm 0.00 in0.0 mm 0.04 in1.0 mm
05:29 AM 74.1°F23.4°C 73.8°F23.2°C 99% Calm Calm -- 29.81 in1009.5 mb 0.00 in0.0 mm 0.00 in0.0 mm 0.04 in1.0 mm
05:22 AM 74.1°F23.4°C 73.8°F23.2°C 99% Calm Calm -- 29.81 in1009.5 mb 0.00 in0.0 mm 0.00 in0.0 mm 0.04 in1.0 mm
05:18 AM 74.1°F23.4°C 73.8°F23.2°C 99% Calm Calm -- 29.81 in1009.5 mb 0.00 in0.0 mm 0.00 in0.0 mm 0.04 in1.0 mm
05:12 AM 74.1°F23.4°C 73.8°F23.2°C 99% Calm Calm -- 29.81 in1009.5 mb 0.00 in0.0 mm 0.00 in0.0 mm 0.04 in1.0 mm
05:07 AM 74.1°F23.4°C 73.8°F23.2°C 99% Calm Calm -- 29.81 in1009.5 mb 0.00 in0.0 mm 0.00 in0.0 mm 0.04 in1.0 mm
05:03 AM 74.1°F23.4°C 73.8°F23.2°C 99% Calm Calm -- 29.81 in1009.5 mb 0.00 in0.0 mm 0.00 in0.0 mm 0.04 in1.0 mm
04:57 AM 74.1°F23.4°C 73.8°F23.2°C 99% Calm Calm -- 29.81 in1009.5 mb 0.00 in0.0 mm 0.00 in0.0 mm 0.04 in1.0 mm
04:52 AM 74.1°F23.4°C 73.8°F23.2°C 99% Calm Calm -- 29.80 in1009.1 mb 0.00 in0.0 mm 0.00 in0.0 mm 0.04 in1.0 mm
04:46 AM 74.1°F23.4°C 73.8°F23.2°C 99% Calm Calm -- 29.80 in1009.1 mb 0.00 in0.0 mm 0.00 in0.0 mm 0.04 in1.0 mm
04:42 AM 74.1°F23.4°C 73.8°F23.2°C 99% Calm Calm -- 29.80 in1009.1 mb 0.00 in0.0 mm 0.00 in0.0 mm 0.04 in1.0 mm
04:37 AM 74.1°F23.4°C 73.8°F23.2°C 99% Calm Calm -- 29.80 in1009.1 mb 0.00 in0.0 mm 0.00 in0.0 mm 0.04 in1.0 mm
04:31 AM 74.1°F23.4°C 73.8°F23.2°C 99% Calm Calm -- 29.81 in1009.5 mb 0.00 in0.0 mm 0.00 in0.0 mm 0.04 in1.0 mm
04:25 AM 74.1°F23.4°C 73.8°F23.2°C 99% Calm Calm -- 29.81 in1009.5 mb 0.00 in0.0 mm 0.00 in0.0 mm 0.04 in1.0 mm
04:20 AM 74.1°F23.4°C 73.8°F23.2°C 99% Calm Calm -- 29.81 in1009.5 mb 0.00 in0.0 mm 0.00 in0.0 mm 0.04 in1.0 mm
04:14 AM 74.1°F23.4°C 73.8°F23.2°C 99% Calm Calm -- 29.80 in1009.1 mb 0.00 in0.0 mm 0.00 in0.0 mm 0.04 in1.0 mm
04:09 AM 74.1°F23.4°C 73.8°F23.2°C 99% Calm Calm -- 29.80 in1009.1 mb 0.00 in0.0 mm 0.00 in0.0 mm 0.04 in1.0 mm
04:05 AM 74.1°F23.4°C 73.8°F23.2°C 99% Calm Calm -- 29.80 in1009.1 mb 0.00 in0.0 mm 0.00 in0.0 mm 0.04 in1.0 mm
03:59 AM 74.1°F23.4°C 73.8°F23.2°C 99% Calm Calm 0.4 mph0.6 kmh 29.81 in1009.5 mb 0.00 in0.0 mm 0.00 in0.0 mm 0.04 in1.0 mm
03:55 AM 74.1°F23.4°C 73.8°F23.2°C 99% 0.4 mph WSW0.6 kmh WSW 0.4 mph0.6 kmh 29.81 in1009.5 mb 0.00 in0.0 mm 0.00 in0.0 mm 0.04 in1.0 mm
03:48 AM 74.1°F23.4°C 73.8°F23.2°C 99% Calm Calm -- 29.80 in1009.1 mb 0.00 in0.0 mm 0.00 in0.0 mm 0.04 in1.0 mm
03:44 AM 74.1°F23.4°C 73.8°F23.2°C 99% Calm Calm -- 29.80 in1009.1 mb 0.00 in0.0 mm 0.00 in0.0 mm 0.04 in1.0 mm
03:37 AM 74.1°F23.4°C 73.5°F23.1°C 98% Calm Calm -- 29.80 in1009.1 mb 0.00 in0.0 mm 0.00 in0.0 mm 0.04 in1.0 mm
03:33 AM 74.1°F23.4°C 73.5°F23.1°C 98% Calm Calm -- 29.81 in1009.5 mb 0.00 in0.0 mm 0.00 in0.0 mm 0.04 in1.0 mm
03:29 AM 73.9°F23.3°C 73.6°F23.1°C 99% Calm Calm -- 29.81 in1009.5 mb 0.00 in0.0 mm 0.00 in0.0 mm 0.04 in1.0 mm
03:22 AM 73.9°F23.3°C 73.3°F22.9°C 99% Calm Calm -- 29.81 in1009.5 mb 0.00 in0.0 mm 0.00 in0.0 mm 0.04 in1.0 mm
03:18 AM 73.9°F23.3°C 73.3°F22.9°C 98% Calm Calm -- 29.81 in1009.5 mb 0.00 in0.0 mm 0.00 in0.0 mm 0.04 in1.0 mm
03:12 AM 73.9°F23.3°C 73.3°F22.9°C 98% Calm Calm -- 29.81 in1009.5 mb 0.00 in0.0 mm 0.00 in0.0 mm 0.04 in1.0 mm
03:07 AM 73.9°F23.3°C 73.3°F22.9°C 98% Calm Calm -- 29.81 in1009.5 mb 0.00 in0.0 mm 0.00 in0.0 mm 0.04 in1.0 mm
03:01 AM 73.9°F23.3°C 73.3°F22.9°C 98% Calm Calm -- 29.81 in1009.5 mb 0.00 in0.0 mm 0.00 in0.0 mm 0.04 in1.0 mm
02:57 AM 73.9°F23.3°C 73.3°F22.9°C 98% Calm Calm -- 29.81 in1009.5 mb 0.00 in0.0 mm 0.00 in0.0 mm 0.04 in1.0 mm
02:52 AM 73.9°F23.3°C 73.3°F22.9°C 98% Calm Calm -- 29.81 in1009.5 mb 0.00 in0.0 mm 0.00 in0.0 mm 0.04 in1.0 mm
02:46 AM 73.9°F23.3°C 73.3°F22.9°C 98% Calm Calm -- 29.81 in1009.5 mb 0.00 in0.0 mm 0.00 in0.0 mm 0.04 in1.0 mm
02:42 AM 73.9°F23.3°C 73.3°F22.9°C 98% Calm Calm -- 29.81 in1009.5 mb 0.00 in0.0 mm 0.00 in0.0 mm 0.04 in1.0 mm
02:37 AM 73.9°F23.3°C 73.3°F22.9°C 98% Calm Calm -- 29.81 in1009.5 mb 0.00 in0.0 mm 0.00 in0.0 mm 0.04 in1.0 mm
02:31 AM 73.9°F23.3°C 73.3°F22.9°C 98% Calm Calm -- 29.81 in1009.5 mb 0.00 in0.0 mm 0.00 in0.0 mm 0.04 in1.0 mm
02:27 AM 73.9°F23.3°C 73.3°F22.9°C 98% Calm Calm -- 29.82 in1009.8 mb 0.00 in0.0 mm 0.00 in0.0 mm 0.04 in1.0 mm
02:20 AM 73.9°F23.3°C 73.3°F22.9°C 98% Calm Calm -- 29.81 in1009.5 mb 0.00 in0.0 mm 0.00 in0.0 mm 0.04 in1.0 mm
02:16 AM 73.9°F23.3°C 73.3°F22.9°C 98% Calm Calm -- 29.81 in1009.5 mb 0.00 in0.0 mm 0.00 in0.0 mm 0.04 in1.0 mm
02:10 AM 73.9°F23.3°C 73.3°F22.9°C 98% Calm Calm -- 29.81 in1009.5 mb 0.00 in0.0 mm 0.00 in0.0 mm 0.04 in1.0 mm
02:05 AM 73.9°F23.3°C 73.3°F22.9°C 98% Calm Calm -- 29.82 in1009.8 mb 0.00 in0.0 mm 0.00 in0.0 mm 0.04 in1.0 mm
01:57 AM 73.9°F23.3°C 73.3°F22.9°C 98% Calm Calm -- 29.82 in1009.8 mb 0.02 in0.5 mm 0.00 in0.0 mm 0.04 in1.0 mm
01:52 AM 74.1°F23.4°C 73.5°F23.1°C 98% Calm Calm -- 29.82 in1009.8 mb 0.02 in0.5 mm 0.00 in0.0 mm 0.04 in1.0 mm
01:46 AM 73.9°F23.3°C 73.3°F22.9°C 98% Calm Calm -- 29.82 in1009.8 mb 0.02 in0.5 mm 0.00 in0.0 mm 0.04 in1.0 mm
01:42 AM 73.9°F23.3°C 73.3°F22.9°C 98% Calm Calm -- 29.82 in1009.8 mb 0.02 in0.5 mm 0.00 in0.0 mm 0.04 in1.0 mm
01:35 AM 73.9°F23.3°C 73.3°F22.9°C 98% Calm Calm -- 29.82 in1009.8 mb 0.04 in1.0 mm 0.00 in0.0 mm 0.04 in1.0 mm
01:31 AM 73.9°F23.3°C 73.3°F22.9°C 98% Calm Calm 0.9 mph1.4 kmh 29.82 in1009.8 mb 0.04 in1.0 mm 0.00 in0.0 mm 0.04 in1.0 mm
01:25 AM 73.9°F23.3°C 73.3°F22.9°C 98% 0.9 mph SW1.4 kmh SW 0.9 mph1.4 kmh 29.82 in1009.8 mb 0.04 in1.0 mm 0.00 in0.0 mm 0.04 in1.0 mm
01:20 AM 73.9°F23.3°C 73.3°F22.9°C 98% Calm Calm -- 29.82 in1009.8 mb 0.04 in1.0 mm 0.00 in0.0 mm 0.04 in1.0 mm
01:16 AM 74.1°F23.4°C 73.5°F23.1°C 98% Calm Calm -- 29.82 in1009.8 mb 0.04 in1.0 mm 0.00 in0.0 mm 0.04 in1.0 mm
01:10 AM 74.1°F23.4°C 73.5°F23.1°C 98% Calm Calm 0.9 mph1.4 kmh 29.82 in1009.8 mb 0.04 in1.0 mm 0.00 in0.0 mm 0.04 in1.0 mm
01:05 AM 74.1°F23.4°C 73.5°F23.1°C 98% Calm Calm 0.9 mph1.4 kmh 29.83 in1010.2 mb 0.04 in1.0 mm 0.00 in0.0 mm 0.04 in1.0 mm
12:59 AM 74.1°F23.4°C 73.5°F23.1°C 98% Calm Calm 1.3 mph2.1 kmh 29.83 in1010.2 mb 0.04 in1.0 mm 0.30 in7.6 mm 0.02 in0.5 mm
12:55 AM 74.1°F23.4°C 73.5°F23.1°C 98% Calm Calm 1.3 mph2.1 kmh 29.83 in1010.2 mb 0.02 in0.5 mm 0.00 in0.0 mm 0.02 in0.5 mm
12:48 AM 74.1°F23.4°C 73.5°F23.1°C 98% Calm Calm 0.7 mph1.1 kmh 29.83 in1010.2 mb 0.02 in0.5 mm 0.00 in0.0 mm 0.02 in0.5 mm
12:44 AM 74.1°F23.4°C 73.5°F23.1°C 98% Calm Calm 0.7 mph1.1 kmh 29.83 in1010.2 mb 0.02 in0.5 mm 0.17 in4.3 mm 0.14 in3.6 mm
12:37 AM 74.1°F23.4°C 73.5°F23.1°C 98% Calm Calm -- 29.83 in1010.2 mb 0.00 in0.0 mm 0.00 in0.0 mm 0.12 in3.0 mm
12:33 AM 74.3°F23.5°C 73.7°F23.2°C 98% Calm Calm -- 29.84 in1010.5 mb 0.00 in0.0 mm 0.00 in0.0 mm 0.12 in3.0 mm
12:27 AM 74.3°F23.5°C 73.7°F23.2°C 98% Calm Calm -- 29.83 in1010.2 mb 0.00 in0.0 mm 0.00 in0.0 mm 0.12 in3.0 mm
12:22 AM 74.3°F23.5°C 73.4°F23.0°C 97% Calm Calm -- 29.83 in1010.2 mb 0.00 in0.0 mm 0.00 in0.0 mm 0.12 in3.0 mm
12:18 AM 74.3°F23.5°C 73.7°F23.2°C 98% Calm Calm -- 29.83 in1010.2 mb 0.00 in0.0 mm 0.00 in0.0 mm 0.12 in3.0 mm
12:12 AM 74.5°F23.6°C 73.6°F23.1°C 97% Calm Calm -- 29.84 in1010.5 mb 0.02 in0.5 mm 0.00 in0.0 mm 0.12 in3.0 mm
12:07 AM 74.5°F23.6°C 73.9°F23.3°C 97% Calm Calm -- 29.84 in1010.5 mb 0.04 in1.0 mm 0.00 in0.0 mm 0.12 in3.0 mm
12:03 AM 74.5°F23.6°C 73.9°F23.3°C 98% Calm Calm -- 29.84 in1010.5 mb 0.12 in3.0 mm 2.40 in61.0 mm 0.12 in3.0 mm